TAF and METAR

Decoding for American and Canadian METARs and TAFs is not fully implemented.

Could not understand the following METAR

K0CO 161206Z AUTO 30019G25KT 10SM CLR 06/M01 A3069 RMK AO2
No TAF available for Empire